createdAt,value
2017-10-27T00:00:02.773Z,1021.93
2017-10-27T00:05:03.085Z,1021.93
2017-10-27T00:10:02.685Z,1021.96
2017-10-27T00:15:03.295Z,1021.89
2017-10-27T00:20:02.743Z,1021.95
2017-10-27T00:25:03.387Z,1021.98
2017-10-27T00:30:02.922Z,1022
2017-10-27T00:35:03.335Z,1021.96
2017-10-27T00:40:02.900Z,1021.91
2017-10-27T00:45:03.563Z,1021.82
2017-10-27T00:50:03.049Z,1021.8
2017-10-27T00:55:03.507Z,1021.82
2017-10-27T01:00:02.860Z,1021.75
2017-10-27T01:05:03.242Z,1021.73
2017-10-27T01:10:02.852Z,1021.73
2017-10-27T01:15:03.407Z,1021.73
2017-10-27T01:20:02.891Z,1021.52
2017-10-27T01:25:03.340Z,1021.69
2017-10-27T01:30:02.733Z,1021.53
2017-10-27T01:35:03.394Z,1021.63
2017-10-27T01:40:03.027Z,1021.65
2017-10-27T01:45:03.611Z,1021.51
2017-10-27T01:50:03.270Z,1021.45
2017-10-27T01:55:02.812Z,1021.37
2017-10-27T02:00:03.397Z,1021.42
2017-10-27T02:05:02.849Z,1021.44
2017-10-27T02:10:03.361Z,1021.42
2017-10-27T02:15:02.824Z,1021.42
2017-10-27T02:20:03.487Z,1021.36
2017-10-27T02:25:03.105Z,1021.37
2017-10-27T02:30:03.577Z,1021.35
2017-10-27T02:35:03.138Z,1021.46
2017-10-27T02:40:02.760Z,1021.42
2017-10-27T02:45:03.429Z,1021.37
2017-10-27T02:50:02.996Z,1021.29
2017-10-27T02:55:03.450Z,1021.37
2017-10-27T03:00:02.926Z,1021.48
2017-10-27T03:05:03.256Z,1021.48
2017-10-27T03:10:02.851Z,1021.43
2017-10-27T03:15:03.301Z,1021.59
2017-10-27T03:20:02.942Z,1021.54
2017-10-27T03:25:03.466Z,1021.53
2017-10-27T03:30:02.828Z,1021.61
2017-10-27T03:35:03.306Z,1021.58
2017-10-27T03:40:02.879Z,1021.63
2017-10-27T03:45:03.408Z,1021.64
2017-10-27T03:50:02.973Z,1021.71
2017-10-27T03:55:03.406Z,1021.86
2017-10-27T04:00:02.944Z,1021.94
2017-10-27T04:05:03.498Z,1021.99
2017-10-27T04:10:03.098Z,1022.06
2017-10-27T04:15:03.597Z,1022.12
2017-10-27T04:20:03.120Z,1022.14
2017-10-27T04:25:02.740Z,1022.13
2017-10-27T04:30:03.026Z,1022.12
2017-10-27T04:35:03.479Z,1022.19
2017-10-27T04:40:02.918Z,1022.33
2017-10-27T04:45:03.319Z,1022.37
2017-10-27T04:50:02.892Z,1022.41
2017-10-27T04:55:03.384Z,1022.45
2017-10-27T05:00:02.846Z,1022.45
2017-10-27T05:05:03.501Z,1022.55
2017-10-27T05:10:03.028Z,1022.61
2017-10-27T05:15:03.617Z,1022.66
2017-10-27T05:20:03.160Z,1022.71
2017-10-27T05:25:02.688Z,1022.72
2017-10-27T05:30:03.150Z,1022.71
2017-10-27T05:35:03.523Z,1022.73
2017-10-27T05:40:03.123Z,1022.71
2017-10-27T05:45:03.629Z,1022.77
2017-10-27T05:50:03.022Z,1022.84
2017-10-27T05:55:03.476Z,1022.96
2017-10-27T06:00:02.920Z,1023
2017-10-27T06:05:03.320Z,1023.03
2017-10-27T06:10:02.886Z,1023.13
2017-10-27T06:15:03.316Z,1023.21
2017-10-27T06:20:02.790Z,1023.38
2017-10-27T06:25:03.296Z,1023.4
2017-10-27T06:30:02.870Z,1023.48
2017-10-27T06:35:03.427Z,1023.53
2017-10-27T06:40:02.852Z,1023.57
2017-10-27T06:45:03.444Z,1023.64
2017-10-27T06:50:02.878Z,1023.7
2017-10-27T06:55:03.289Z,1023.79
2017-10-27T07:00:02.834Z,1023.89
2017-10-27T07:05:03.481Z,1023.89
2017-10-27T07:10:03.092Z,1023.89
2017-10-27T07:15:03.482Z,1023.94
2017-10-27T07:20:03.143Z,1024.2
2017-10-27T07:25:02.642Z,1024.25
2017-10-27T07:30:03.199Z,1024.22
2017-10-27T07:35:02.820Z,1024.46
2017-10-27T07:40:03.312Z,1024.71
2017-10-27T07:45:02.743Z,1024.78
2017-10-27T07:50:03.124Z,1024.86
2017-10-27T07:55:02.643Z,1024.91
2017-10-27T08:00:03.185Z,1024.9
2017-10-27T08:05:02.725Z,1024.9
2017-10-27T08:10:03.197Z,1024.93
2017-10-27T08:15:02.779Z,1024.97
2017-10-27T08:20:03.191Z,1025.01
2017-10-27T08:25:03.579Z,1025.1
2017-10-27T08:30:03.081Z,1025.12
2017-10-27T08:35:02.897Z,1025.16
2017-10-27T08:40:03.515Z,1025.26
2017-10-27T08:45:03.033Z,1025.36
2017-10-27T08:50:03.584Z,1025.53
2017-10-27T08:55:03.105Z,1025.52
2017-10-27T09:00:03.597Z,1025.64
2017-10-27T09:05:03.169Z,1025.76
2017-10-27T09:10:02.819Z,1025.87
2017-10-27T09:15:03.447Z,1025.86
2017-10-27T09:20:03.019Z,1025.98
2017-10-27T09:25:02.670Z,1026.06
2017-10-27T09:30:02.995Z,1026.19
2017-10-27T09:35:03.448Z,1026.04
2017-10-27T09:40:02.889Z,1026.12
2017-10-27T09:45:03.454Z,1026.24
2017-10-27T09:50:02.891Z,1026.36
2017-10-27T09:55:03.471Z,1026.56
2017-10-27T10:00:02.892Z,1026.41
2017-10-27T10:05:03.301Z,1026.41
2017-10-27T10:10:02.711Z,1026.58
2017-10-27T10:15:03.028Z,1026.76
2017-10-27T10:20:03.516Z,1026.89
2017-10-27T10:25:03.134Z,1026.93
2017-10-27T10:30:03.515Z,1027.07
2017-10-27T10:35:02.936Z,1027.21
2017-10-27T10:40:03.422Z,1027.21
2017-10-27T10:45:02.910Z,1027.12
2017-10-27T10:50:03.416Z,1027.03
2017-10-27T10:55:02.730Z,1027.08
2017-10-27T11:00:03.103Z,1027.14
2017-10-27T11:05:02.665Z,1027.14
2017-10-27T11:10:03.339Z,1027.08
2017-10-27T11:15:02.898Z,1027.1
2017-10-27T11:20:03.284Z,1027.12
2017-10-27T11:25:02.864Z,1027.24
2017-10-27T11:30:03.454Z,1027.28
2017-10-27T11:35:03.023Z,1027.24
2017-10-27T11:40:02.680Z,1027.23
2017-10-27T11:45:03.219Z,1027.17
2017-10-27T11:50:02.740Z,1027.17
2017-10-27T11:55:03.244Z,1027.15
2017-10-27T12:00:02.808Z,1027.01
2017-10-27T12:05:03.444Z,1027.05
2017-10-27T12:10:03.017Z,1027.21
2017-10-27T12:15:03.288Z,1027.29
2017-10-27T12:20:02.685Z,1027.36
2017-10-27T12:25:03.019Z,1027.36
2017-10-27T12:30:03.468Z,1027.56
2017-10-27T12:35:02.818Z,1027.53
2017-10-27T12:40:03.276Z,1027.45
2017-10-27T12:45:02.734Z,1027.42
2017-10-27T12:50:03.141Z,1027.38
2017-10-27T12:55:03.530Z,1027.34
2017-10-27T13:00:02.939Z,1027.26
2017-10-27T13:05:03.507Z,1027.23
2017-10-27T13:10:02.949Z,1027.33
2017-10-27T13:15:03.310Z,1027.59
2017-10-27T13:20:02.739Z,1027.66
2017-10-27T13:25:03.236Z,1027.67
2017-10-27T13:30:03.582Z,1027.66
2017-10-27T13:35:02.955Z,1027.82
2017-10-27T13:40:03.563Z,1027.82
2017-10-27T13:45:03.121Z,1027.86
2017-10-27T13:50:03.584Z,1027.9
2017-10-27T13:55:03.330Z,1027.9
2017-10-27T14:00:02.765Z,1027.98
2017-10-27T14:05:03.309Z,1027.86
2017-10-27T14:10:02.887Z,1027.85
2017-10-27T14:15:03.449Z,1027.83
2017-10-27T14:20:02.898Z,1027.91
2017-10-27T14:25:03.275Z,1027.82
2017-10-27T14:30:02.741Z,1027.88
2017-10-27T14:35:03.266Z,1028.02
2017-10-27T14:40:02.747Z,1028.1
2017-10-27T14:45:03.122Z,1028.25
2017-10-27T14:50:03.536Z,1028.26
2017-10-27T14:55:02.983Z,1028.31
2017-10-27T15:00:03.454Z,1028.36
2017-10-27T15:05:02.887Z,1028.54
2017-10-27T15:10:03.494Z,1028.57
2017-10-27T15:15:02.940Z,1028.61
2017-10-27T15:20:03.432Z,1028.63
2017-10-27T15:25:03.034Z,1028.7
2017-10-27T15:30:03.510Z,1028.71
2017-10-27T15:35:03.093Z,1028.86
2017-10-27T15:40:03.519Z,1028.87
2017-10-27T15:45:03.048Z,1028.88
2017-10-27T15:50:03.587Z,1028.73
2017-10-27T15:55:03.126Z,1028.68
2017-10-27T16:00:03.526Z,1028.72
2017-10-27T16:05:03.136Z,1028.79
2017-10-27T16:10:02.750Z,1028.7
2017-10-27T16:15:03.169Z,1028.63
2017-10-27T16:20:02.702Z,1028.63
2017-10-27T16:25:03.029Z,1028.63
2017-10-27T16:30:03.264Z,1028.6
2017-10-27T16:35:02.744Z,1028.74
2017-10-27T16:40:03.397Z,1028.69
2017-10-27T16:45:02.954Z,1028.71
2017-10-27T16:50:03.671Z,1028.69
2017-10-27T16:55:03.127Z,1028.89
2017-10-27T17:00:02.730Z,1029.07
2017-10-27T17:05:03.173Z,1029.19
2017-10-27T17:10:02.863Z,1029.03
2017-10-27T17:15:03.368Z,1029.04
2017-10-27T17:20:02.780Z,1029.25
2017-10-27T17:25:03.258Z,1029.27
2017-10-27T17:30:02.808Z,1029.33
2017-10-27T17:35:03.201Z,1029.39
2017-10-27T17:40:02.772Z,1029.4
2017-10-27T17:45:03.157Z,1029.47
2017-10-27T17:50:03.569Z,1029.49
2017-10-27T17:55:02.975Z,1029.53
2017-10-27T18:00:03.325Z,1029.51
2017-10-27T18:05:02.807Z,1029.54
2017-10-27T18:10:03.346Z,1029.63
2017-10-27T18:15:02.927Z,1029.51
2017-10-27T18:20:03.582Z,1029.45
2017-10-27T18:25:03.158Z,1029.34
2017-10-27T18:30:03.657Z,1029.45
2017-10-27T18:35:03.035Z,1029.42
2017-10-27T18:40:03.531Z,1029.51
2017-10-27T18:45:02.935Z,1029.51
2017-10-27T18:50:03.439Z,1029.53
2017-10-27T18:55:02.822Z,1029.65
2017-10-27T19:00:03.162Z,1029.65
2017-10-27T19:05:02.752Z,1029.65
2017-10-27T19:10:03.214Z,1029.62
2017-10-27T19:15:02.741Z,1029.5
2017-10-27T19:20:03.175Z,1029.48
2017-10-27T19:25:03.504Z,1029.42
2017-10-27T19:30:03.085Z,1029.38
2017-10-27T19:35:03.640Z,1029.45
2017-10-27T19:40:03.165Z,1029.43
2017-10-27T19:45:02.703Z,1029.3
2017-10-27T19:50:03.115Z,1029.37
2017-10-27T19:55:03.411Z,1029.33
2017-10-27T20:00:03.199Z,1029.32
2017-10-27T20:05:02.716Z,1029.3
2017-10-27T20:10:03.316Z,1029.4
2017-10-27T20:15:02.876Z,1029.24
2017-10-27T20:20:03.282Z,1029.24
2017-10-27T20:25:03.669Z,1029.29
2017-10-27T20:30:03.052Z,1029.29
2017-10-27T20:35:03.617Z,1029.22
2017-10-27T20:40:03.084Z,1029.24
2017-10-27T20:45:03.623Z,1029.3
2017-10-27T20:50:03.024Z,1029.27
2017-10-27T20:55:03.506Z,1029.24
2017-10-27T21:00:02.959Z,1029.28
2017-10-27T21:05:03.341Z,1029.26
2017-10-27T21:10:02.803Z,1029.29
2017-10-27T21:15:03.127Z,1029.15
2017-10-27T21:20:03.633Z,1029.12
2017-10-27T21:25:03.143Z,1029.12
2017-10-27T21:30:02.939Z,1029.17
2017-10-27T21:35:03.492Z,1029.12
2017-10-27T21:40:03.067Z,1029.16
2017-10-27T21:45:03.439Z,1029.06
2017-10-27T21:50:03.040Z,1028.99
2017-10-27T21:55:03.456Z,1028.96
2017-10-27T22:00:02.847Z,1028.87
2017-10-27T22:05:03.435Z,1028.81
2017-10-27T22:10:02.883Z,1028.72
2017-10-27T22:15:03.376Z,1028.64
2017-10-27T22:20:02.799Z,1028.54
2017-10-27T22:25:03.345Z,1028.43
2017-10-27T22:30:02.732Z,1028.35
2017-10-27T22:35:03.259Z,1028.35
2017-10-27T22:40:02.807Z,1028.3
2017-10-27T22:45:03.182Z,1028.28
2017-10-27T22:50:02.784Z,1028.27
2017-10-27T22:55:03.313Z,1028.1
2017-10-27T23:00:03.783Z,1028.19
2017-10-27T23:05:02.939Z,1028.22
2017-10-27T23:10:03.391Z,1028.1
2017-10-27T23:15:02.715Z,1028.14
2017-10-27T23:20:03.260Z,1028.03
2017-10-27T23:25:02.774Z,1028.06
2017-10-27T23:30:03.380Z,1027.91
2017-10-27T23:35:02.732Z,1027.9
2017-10-27T23:40:03.200Z,1027.85
2017-10-27T23:45:02.740Z,1027.85
2017-10-27T23:50:03.342Z,1027.89
2017-10-27T23:55:02.707Z,1027.77
